-16.94C
небольшой снег
небольшой снег
Дата и времяТемператураДавление, мм рт.ст.Влажность, %Осадки
МинимумМаксимум
07.12.2022 08:00-18.76C-17.55C77489облачно с прояснениями
07.12.2022 11:00-17.91C-17.59C77493облачно с прояснениями
07.12.2022 14:00-16.55C-16.55C77295облачно с прояснениями
07.12.2022 17:00-17.37C-17.37C77195облачно с прояснениями
07.12.2022 20:00-17.14C-17.14C77093облачно с прояснениями
07.12.2022 23:00-16.66C-16.66C76890облачно с прояснениями
08.12.2022 02:00-16.36C-16.36C76789облачно с прояснениями
08.12.2022 05:00-15.01C-15.01C76692пасмурно
08.12.2022 08:00-12.64C-12.64C76594небольшой снег
08.12.2022 11:00-11.63C-11.63C76594пасмурно
08.12.2022 14:00-12.49C-12.49C76595пасмурно
08.12.2022 17:00-13.62C-13.62C76596пасмурно
08.12.2022 20:00-13.73C-13.73C76596пасмурно
08.12.2022 23:00-11.7C-11.7C76594пасмурно
09.12.2022 02:00-12.37C-12.37C76595пасмурно
09.12.2022 05:00-12.94C-12.94C76593пасмурно
09.12.2022 08:00-13.89C-13.89C76591облачно с прояснениями
09.12.2022 11:00-13.63C-13.63C76691облачно с прояснениями
09.12.2022 14:00-13.36C-13.36C76692небольшая облачность
09.12.2022 17:00-15.03C-15.03C76795переменная облачность
09.12.2022 20:00-13.17C-13.17C76795пасмурно
09.12.2022 23:00-12.2C-12.2C76895небольшой снег
10.12.2022 02:00-16.03C-16.03C77093небольшой снег
10.12.2022 05:00-23.27C-23.27C77289пасмурно
10.12.2022 08:00-27.6C-27.6C77493переменная облачность
10.12.2022 11:00-27.11C-27.11C77492переменная облачность
10.12.2022 14:00-25.73C-25.73C77692облачно с прояснениями
10.12.2022 17:00-26.61C-26.61C77793облачно с прояснениями
10.12.2022 20:00-27.66C-27.66C77795облачно с прояснениями
10.12.2022 23:00-28.39C-28.39C77796переменная облачность
11.12.2022 02:00-29.04C-29.04C77797облачно с прояснениями
11.12.2022 05:00-27.95C-27.95C77895облачно с прояснениями
11.12.2022 08:00-24.36C-24.36C77788облачно с прояснениями
11.12.2022 11:00-20.59C-20.59C77788пасмурно
11.12.2022 14:00-17.58C-17.58C77494пасмурно
11.12.2022 17:00-13.72C-13.72C77295небольшой снег
11.12.2022 20:00-8.95C-8.95C76893небольшой снег
11.12.2022 23:00-6.69C-6.69C76593небольшой снег
12.12.2022 02:00-6.04C-6.04C76294снег
12.12.2022 05:00-4.77C-4.77C76090небольшой снег
Дата и время наблюдения: 07.12.2022 05:16:50